Time;durP1;ratioP1;P1;durP2;ratioP2;P2;SDS_P1;SDS_P2;PMS_P1;PMS_P2;Temp;Humidity;BMP_temperature;BMP_pressure;BME280_temperature;BME280_humidity;BME280_pressure;Samples;Min_cycle;Max_cycle;Signal;HPM_P1;HPM_P2
2023/04/26 00:00:00;;;;;;;17.17;7.85;;;;;;;4.56;100.00;95794.38;1026372;28;20027;-73
2023/04/26 00:00:32;;;;;;;14.07;7.72;;;;;;;4.58;100.00;95799.34;1030347;28;20832;-70
2023/04/26 00:01:04;;;;;;;15.80;8.23;;;;;;;4.53;100.00;95788.81;1030003;28;20022;-72
2023/04/26 00:01:34;;;;;;;13.98;7.85;;;;;;;4.58;100.00;95801.94;1030569;28;20282;-72
2023/04/26 00:02:04;;;;;;;18.30;8.15;;;;;;;4.58;100.00;95796.75;1034235;28;20268;-72
2023/04/26 00:02:35;;;;;;;14.73;8.18;;;;;;;4.54;100.00;95798.22;1030123;28;20045;-71
2023/04/26 00:03:06;;;;;;;19.80;8.65;;;;;;;4.52;100.00;95785.44;1030260;28;20023;-71
2023/04/26 00:03:39;;;;;;;14.00;7.45;;;;;;;4.57;100.00;95800.38;1030218;28;20030;-74
2023/04/26 00:04:09;;;;;;;15.48;7.57;;;;;;;4.59;100.00;95798.31;1026010;28;20793;-72
2023/04/26 00:04:40;;;;;;;13.38;8.18;;;;;;;4.56;100.00;95796.97;1027084;28;20262;-71
2023/04/26 00:05:11;;;;;;;13.75;7.68;;;;;;;4.59;100.00;95795.72;1026361;28;20133;-72
2023/04/26 00:05:41;;;;;;;15.38;8.40;;;;;;;4.57;100.00;95793.34;1026521;28;20031;-71
2023/04/26 00:06:13;;;;;;;14.65;8.77;;;;;;;4.50;100.00;95771.88;1029995;28;20543;-70
2023/04/26 00:06:44;;;;;;;16.58;7.30;;;;;;;4.62;100.00;95800.47;1026141;28;20034;-71
2023/04/26 00:07:15;;;;;;;15.30;8.30;;;;;;;4.62;100.00;95790.88;1030094;28;20301;-71
2023/04/26 00:07:45;;;;;;;18.45;8.98;;;;;;;4.64;100.00;95794.03;1025997;28;20779;-72
2023/04/26 00:08:16;;;;;;;19.20;7.47;;;;;;;4.64;100.00;95793.25;1022239;29;20337;-72
2023/04/26 00:08:46;;;;;;;14.70;7.93;;;;;;;4.65;100.00;95789.63;1021825;28;20038;-73
2023/04/26 00:09:18;;;;;;;13.18;8.10;;;;;;;4.63;100.00;95795.06;1026055;28;20034;-72
2023/04/26 00:09:49;;;;;;;13.73;7.22;;;;;;;4.64;100.00;95790.66;1038390;28;20022;-73
2023/04/26 00:10:19;;;;;;;14.10;8.02;;;;;;;4.58;100.00;95791.53;1042319;28;20268;-72
2023/04/26 00:10:50;;;;;;;14.38;7.18;;;;;;;4.58;100.00;95788.94;1042424;28;20036;-73
2023/04/26 00:11:21;;;;;;;16.60;8.00;;;;;;;4.63;100.00;95797.66;1038123;28;20449;-73
2023/04/26 00:11:52;;;;;;;13.52;7.50;;;;;;;4.64;100.00;95801.06;1030055;28;20641;-71
2023/04/26 00:12:22;;;;;;;18.02;8.30;;;;;;;4.63;100.00;95791.69;1030007;28;20266;-73
2023/04/26 00:12:53;;;;;;;15.57;7.80;;;;;;;4.59;100.00;95785.31;1030461;28;20366;-72
2023/04/26 00:13:23;;;;;;;16.70;8.35;;;;;;;4.64;100.00;95795.84;1030078;28;20037;-71
2023/04/26 00:13:54;;;;;;;15.10;8.45;;;;;;;4.59;100.00;95787.94;1030315;28;20022;-71
2023/04/26 00:14:24;;;;;;;15.25;8.00;;;;;;;4.58;100.00;95794.94;1030148;28;20030;-73
2023/04/26 00:14:55;;;;;;;16.73;8.25;;;;;;;4.59;100.00;95799.09;1026295;28;20121;-73
2023/04/26 00:15:25;;;;;;;16.42;8.60;;;;;;;4.60;100.00;95792.91;1030162;28;20081;-72
2023/04/26 00:15:56;;;;;;;14.38;8.40;;;;;;;4.60;100.00;95798.13;1030208;28;20034;-68
2023/04/26 00:16:26;;;;;;;15.85;8.38;;;;;;;4.63;100.00;95794.28;1024312;28;20026;-71
2023/04/26 00:16:56;;;;;;;19.75;8.15;;;;;;;4.60;100.00;95794.72;1026328;28;20034;-74
2023/04/26 00:17:27;;;;;;;14.77;8.45;;;;;;;4.55;100.00;95794.59;1026116;28;20117;-72
2023/04/26 00:17:57;;;;;;;17.33;8.48;;;;;;;4.59;100.00;95800.91;1034199;28;20029;-70
2023/04/26 00:18:28;;;;;;;17.48;8.80;;;;;;;4.56;100.00;95801.38;1030014;28;20030;-70
2023/04/26 00:18:59;;;;;;;15.98;7.35;;;;;;;4.56;100.00;95796.16;1025542;28;20033;-71
2023/04/26 00:19:29;;;;;;;17.25;8.15;;;;;;;4.56;100.00;95793.56;1030096;28;20030;-72
2023/04/26 00:20:00;;;;;;;15.35;8.85;;;;;;;4.57;100.00;95798.56;1030354;28;20030;-73
2023/04/26 00:20:30;;;;;;;17.13;9.38;;;;;;;4.51;100.00;95794.25;1026084;28;20026;-71
2023/04/26 00:21:01;;;;;;;17.70;9.10;;;;;;;4.53;100.00;95804.41;1026426;28;20030;-73
2023/04/26 00:21:32;;;;;;;15.02;8.63;;;;;;;4.45;100.00;95782.13;1025775;28;20034;-70
2023/04/26 00:22:04;;;;;;;18.17;9.50;;;;;;;4.51;100.00;95793.47;1022166;29;20784;-73
2023/04/26 00:22:34;;;;;;;15.05;8.43;;;;;;;4.56;100.00;95796.16;1026047;28;20038;-71
2023/04/26 00:23:08;;;;;;;18.02;9.05;;;;;;;4.52;100.00;95798.41;1026360;28;20298;-73
2023/04/26 00:23:38;;;;;;;14.70;8.60;;;;;;;4.48;100.00;95789.50;1027836;28;20989;-71
2023/04/26 00:24:08;;;;;;;16.70;8.80;;;;;;;4.51;100.00;95790.84;1022544;29;20458;-70
2023/04/26 00:24:39;;;;;;;17.95;8.13;;;;;;;4.51;100.00;95796.06;1022579;29;20428;-72
2023/04/26 00:25:10;;;;;;;18.63;9.00;;;;;;;4.48;100.00;95795.47;1022093;29;20086;-72
2023/04/26 00:25:40;;;;;;;17.73;8.35;;;;;;;4.52;100.00;95795.03;1018309;28;20397;-71
2023/04/26 00:26:11;;;;;;;17.02;8.65;;;;;;;4.49;100.00;95794.47;1026541;28;20338;-72
2023/04/26 00:26:41;;;;;;;16.38;8.77;;;;;;;4.48;100.00;95790.28;1034061;28;20030;-72
2023/04/26 00:27:12;;;;;;;17.98;9.38;;;;;;;4.55;100.00;95799.78;1034240;28;20092;-72
2023/04/26 00:27:42;;;;;;;13.13;7.40;;;;;;;4.49;100.00;95798.84;1034163;28;20037;-72
2023/04/26 00:28:13;;;;;;;14.50;7.95;;;;;;;4.49;100.00;95794.47;1025945;28;20519;-72
2023/04/26 00:28:43;;;;;;;20.23;9.45;;;;;;;4.47;100.00;95791.31;1021758;28;20027;-71
2023/04/26 00:29:14;;;;;;;15.13;8.10;;;;;;;4.43;100.00;95795.38;1021890;28;20027;-71
2023/04/26 00:29:44;;;;;;;17.88;8.48;;;;;;;4.37;100.00;95790.25;1026262;28;20038;-73
2023/04/26 00:30:15;;;;;;;14.10;7.65;;;;;;;4.44;100.00;95788.34;1026079;28;20030;-72
2023/04/26 00:30:47;;;;;;;17.52;9.38;;;;;;;4.45;100.00;95793.31;1026266;28;20034;-71
2023/04/26 00:31:18;;;;;;;15.50;8.80;;;;;;;4.46;100.00;95797.53;1026112;28;20030;-72
2023/04/26 00:31:48;;;;;;;16.42;8.75;;;;;;;4.48;100.00;95794.69;1022541;28;20274;-72
2023/04/26 00:32:19;;;;;;;16.33;8.15;;;;;;;4.48;100.00;95790.28;1026372;28;20516;-70
2023/04/26 00:32:49;;;;;;;17.50;8.68;;;;;;;4.47;100.00;95793.13;1030310;28;20037;-72
2023/04/26 00:33:20;;;;;;;19.92;8.25;;;;;;;4.44;100.00;95786.53;1026081;28;20059;-72
2023/04/26 00:33:50;;;;;;;17.92;8.55;;;;;;;4.46;100.00;95794.09;1025951;28;20033;-72
2023/04/26 00:34:21;;;;;;;15.02;8.07;;;;;;;4.51;100.00;95785.66;1026137;28;20699;-70
2023/04/26 00:34:51;;;;;;;17.02;8.27;;;;;;;4.54;100.00;95795.63;1026001;28;20042;-72
2023/04/26 00:35:22;;;;;;;17.05;8.73;;;;;;;4.55;100.00;95797.97;1022225;28;20058;-71
2023/04/26 00:35:52;;;;;;;17.80;8.32;;;;;;;4.52;100.00;95795.81;1026380;28;20033;-69
2023/04/26 00:36:22;;;;;;;18.27;8.10;;;;;;;4.44;100.00;95785.75;1029834;28;20030;-72
2023/04/26 00:36:53;;;;;;;17.63;9.05;;;;;;;4.48;100.00;95790.28;1028332;28;20027;-72
2023/04/26 00:37:23;;;;;;;16.90;8.35;;;;;;;4.51;100.00;95796.06;1030142;28;20078;-70
2023/04/26 00:37:54;;;;;;;17.35;8.57;;;;;;;4.43;100.00;95787.56;1030168;28;20038;-72
2023/04/26 00:38:24;;;;;;;16.48;8.52;;;;;;;4.46;100.00;95794.09;1022841;28;20049;-72
2023/04/26 00:38:55;;;;;;;21.05;8.80;;;;;;;4.46;100.00;95797.53;1021468;28;20034;-70
2023/04/26 00:39:26;;;;;;;13.95;7.93;;;;;;;4.41;100.00;95784.38;1022237;29;20481;-72
2023/04/26 00:39:56;;;;;;;18.58;8.63;;;;;;;4.45;100.00;95797.72;1018495;29;20444;-71
2023/04/26 00:40:27;;;;;;;16.70;8.45;;;;;;;4.43;100.00;95795.38;1018083;28;20059;-71
2023/04/26 00:40:57;;;;;;;14.02;8.50;;;;;;;4.44;100.00;95799.53;1026383;28;20421;-70
2023/04/26 00:41:27;;;;;;;16.02;8.80;;;;;;;4.43;100.00;95797.16;1022279;28;20026;-70
2023/04/26 00:41:58;;;;;;;16.75;8.25;;;;;;;4.42;100.00;95795.56;1030173;28;20096;-70
2023/04/26 00:42:28;;;;;;;18.80;8.30;;;;;;;4.43;100.00;95797.16;1026301;28;20035;-71
2023/04/26 00:42:59;;;;;;;15.48;8.63;;;;;;;4.44;100.00;95796.16;1025992;28;20027;-69
2023/04/26 00:43:29;;;;;;;16.25;8.73;;;;;;;4.35;100.00;95790.47;1026844;28;20491;-70
2023/04/26 00:44:00;;;;;;;19.92;8.60;;;;;;;4.40;100.00;95787.22;1026622;28;20060;-70
2023/04/26 00:44:30;;;;;;;16.95;7.93;;;;;;;4.39;100.00;95796.81;1026187;28;20041;-72
2023/04/26 00:45:01;;;;;;;17.92;9.35;;;;;;;4.40;100.00;95795.81;1026309;28;20022;-70
2023/04/26 00:45:31;;;;;;;14.52;8.60;;;;;;;4.39;100.00;95790.81;1026318;28;20038;-70
2023/04/26 00:46:02;;;;;;;16.45;9.00;;;;;;;4.41;100.00;95791.41;1022406;28;20508;-72
2023/04/26 00:46:32;;;;;;;16.63;8.35;;;;;;;4.40;100.00;95792.41;1026170;28;20038;-70
2023/04/26 00:47:03;;;;;;;18.58;8.45;;;;;;;4.34;100.00;95786.28;1022425;28;20028;-70
2023/04/26 00:47:33;;;;;;;16.83;8.02;;;;;;;4.32;100.00;95784.94;1026523;28;20054;-70
2023/04/26 00:48:04;;;;;;;15.40;8.45;;;;;;;4.31;100.00;95786.72;1022625;29;20030;-71
2023/04/26 00:48:37;;;;;;;14.95;8.57;;;;;;;4.36;100.00;95792.06;1021657;29;20085;-69
2023/04/26 00:49:08;;;;;;;17.55;8.70;;;;;;;4.37;100.00;95792.84;1017942;29;20038;-71
2023/04/26 00:49:39;;;;;;;15.63;8.65;;;;;;;4.34;100.00;95782.91;1023177;28;20930;-72
2023/04/26 00:50:10;;;;;;;21.20;9.88;;;;;;;4.31;100.00;95788.53;1029804;28;20266;-72
2023/04/26 00:50:40;;;;;;;14.85;9.00;;;;;;;4.26;100.00;95786.63;1033967;28;20025;-72
2023/04/26 00:51:10;;;;;;;18.38;8.80;;;;;;;4.29;100.00;95785.38;1026266;28;20100;-69
2023/04/26 00:51:44;;;;;;;18.45;9.38;;;;;;;4.15;100.00;95769.19;1026090;28;20602;-72
2023/04/26 00:52:14;;;;;;;19.27;8.63;;;;;;;4.26;100.00;95791.81;1026392;28;20038;-72
2023/04/26 00:52:46;;;;;;;17.08;8.52;;;;;;;4.22;100.00;95780.25;1026172;28;20258;-71
2023/04/26 00:53:16;;;;;;;16.45;8.65;;;;;;;4.24;100.00;95793.84;1022101;29;20062;-71
2023/04/26 00:53:47;;;;;;;17.38;8.25;;;;;;;4.25;100.00;95795.41;1018199;29;20267;-72
2023/04/26 00:54:18;;;;;;;16.58;8.73;;;;;;;4.26;100.00;95797.00;1022509;28;20115;-72
2023/04/26 00:54:50;;;;;;;19.20;8.75;;;;;;;4.27;100.00;95797.78;1030209;28;20269;-71
2023/04/26 00:55:21;;;;;;;19.55;8.75;;;;;;;4.21;100.00;95786.47;1033905;28;20265;-73
2023/04/26 00:55:51;;;;;;;15.15;8.18;;;;;;;4.27;100.00;95795.19;1025262;28;20705;-73
2023/04/26 00:56:23;;;;;;;18.13;8.93;;;;;;;4.26;100.00;95791.81;1018317;29;20071;-71
2023/04/26 00:56:53;;;;;;;16.33;7.95;;;;;;;4.28;100.00;95799.38;1024444;28;20811;-70
2023/04/26 00:57:24;;;;;;;20.13;9.18;;;;;;;4.28;100.00;95797.56;1017919;29;20340;-71
2023/04/26 00:57:54;;;;;;;19.67;9.38;;;;;;;4.30;100.00;95797.34;1021909;29;20019;-71
2023/04/26 00:58:24;;;;;;;15.73;8.80;;;;;;;4.29;100.00;95795.75;1022286;28;20023;-70
2023/04/26 00:58:55;;;;;;;18.83;9.60;;;;;;;4.31;100.00;95793.75;1021563;28;20106;-72
2023/04/26 00:59:25;;;;;;;20.33;9.15;;;;;;;4.33;100.00;95802.13;1030153;28;20027;-71
2023/04/26 00:59:56;;;;;;;14.48;8.13;;;;;;;4.30;100.00;95794.75;1034405;28;20029;-73
2023/04/26 01:00:26;;;;;;;18.67;8.98;;;;;;;4.30;100.00;95800.75;1034429;28;20053;-72
2023/04/26 01:00:57;;;;;;;15.93;8.68;;;;;;;4.28;100.00;95796.78;1034485;28;20049;-72
2023/04/26 01:01:28;;;;;;;15.90;8.88;;;;;;;4.24;100.00;95791.22;1034262;28;20097;-70
2023/04/26 01:01:59;;;;;;;18.02;9.05;;;;;;;4.29;100.00;95801.75;1026689;28;20110;-71
2023/04/26 01:02:29;;;;;;;17.65;8.77;;;;;;;4.22;100.00;95791.44;1026536;28;20027;-71
2023/04/26 01:03:00;;;;;;;17.30;8.63;;;;;;;4.28;100.00;95807.16;1030258;28;20034;-70
2023/04/26 01:03:30;;;;;;;15.82;8.63;;;;;;;4.29;100.00;95798.34;1030028;28;20046;-71
2023/04/26 01:04:01;;;;;;;18.23;9.55;;;;;;;4.30;100.00;95805.94;1034120;28;20041;-69
2023/04/26 01:04:32;;;;;;;20.13;9.00;;;;;;;4.25;100.00;95801.38;1034046;28;20081;-71
2023/04/26 01:05:03;;;;;;;17.08;9.30;;;;;;;4.27;100.00;95800.41;1034167;28;20033;-71
2023/04/26 01:05:35;;;;;;;16.60;8.90;;;;;;;4.28;100.00;95805.34;1026319;28;21301;-71
2023/04/26 01:06:06;;;;;;;23.10;9.35;;;;;;;4.25;100.00;95803.97;1021845;29;20285;-73
2023/04/26 01:06:37;;;;;;;17.00;8.80;;;;;;;4.20;100.00;95796.06;1021990;29;20333;-71
2023/04/26 01:07:07;;;;;;;15.00;8.50;;;;;;;4.24;100.00;95802.41;1022212;29;20031;-73
2023/04/26 01:07:38;;;;;;;15.23;8.95;;;;;;;4.27;100.00;95806.38;1022411;28;20271;-71
2023/04/26 01:08:08;;;;;;;16.00;7.97;;;;;;;4.31;100.00;95804.91;1025931;28;20090;-71
2023/04/26 01:08:39;;;;;;;20.52;8.55;;;;;;;4.27;100.00;95801.19;1021783;28;20035;-73
2023/04/26 01:09:13;;;;;;;18.35;9.70;;;;;;;4.25;100.00;95805.78;1022036;29;20032;-72
2023/04/26 01:09:44;;;;;;;19.20;8.63;;;;;;;4.29;100.00;95806.16;1023744;28;20485;-71
2023/04/26 01:10:14;;;;;;;17.48;9.07;;;;;;;4.30;100.00;95805.94;1030643;28;20277;-70
2023/04/26 01:10:47;;;;;;;18.95;9.05;;;;;;;4.30;100.00;95811.13;1029883;28;20504;-72
2023/04/26 01:11:19;;;;;;;17.42;8.55;;;;;;;4.30;100.00;95805.16;1026858;28;20057;-70
2023/04/26 01:11:49;;;;;;;17.00;9.00;;;;;;;4.27;100.00;95803.78;1022353;28;20259;-71
2023/04/26 01:12:19;;;;;;;16.00;8.95;;;;;;;4.28;100.00;95800.16;1022374;28;21384;-71
2023/04/26 01:12:50;;;;;;;17.55;9.00;;;;;;;4.29;100.00;95806.94;1025980;28;20400;-72
2023/04/26 01:13:21;;;;;;;17.38;9.18;;;;;;;4.28;100.00;95800.16;1025949;28;20022;-70
2023/04/26 01:13:51;;;;;;;17.52;8.63;;;;;;;4.27;100.00;95803.00;1025908;28;20022;-71
2023/04/26 01:14:22;;;;;;;14.43;7.90;;;;;;;4.28;100.00;95805.34;1021925;29;20505;-71
2023/04/26 01:14:52;;;;;;;18.02;8.93;;;;;;;4.28;100.00;95800.16;1021727;29;20029;-71
2023/04/26 01:15:23;;;;;;;19.98;9.63;;;;;;;4.26;100.00;95794.41;1021817;29;20673;-71
2023/04/26 01:15:54;;;;;;;19.52;10.10;;;;;;;4.28;100.00;95800.16;1021857;29;20507;-70
2023/04/26 01:16:24;;;;;;;17.67;8.90;;;;;;;4.25;100.00;95801.38;1029602;28;20270;-72
2023/04/26 01:16:56;;;;;;;14.73;8.30;;;;;;;4.28;100.00;95805.34;1028426;28;20077;-71
2023/04/26 01:17:27;;;;;;;15.93;8.27;;;;;;;4.28;100.00;95802.75;1030189;28;20809;-72
2023/04/26 01:17:57;;;;;;;17.35;8.68;;;;;;;4.25;100.00;95800.59;1034085;28;20349;-71
2023/04/26 01:18:27;;;;;;;15.95;8.27;;;;;;;4.27;100.00;95803.78;1030377;28;20466;-72
2023/04/26 01:19:08;;;;;;;20.17;9.60;;;;;;;4.28;100.00;95810.56;1025308;28;20034;-72
2023/04/26 01:19:46;;;;;;;18.95;9.73;;;;;;;4.28;100.00;95810.56;1021900;29;20027;-71
2023/04/26 01:20:16;;;;;;;17.23;8.93;;;;;;;4.28;100.00;95799.38;1022235;29;20043;-71
2023/04/26 01:20:47;;;;;;;14.23;8.30;;;;;;;4.29;100.00;95801.75;1022440;29;20646;-71
2023/04/26 01:21:21;;;;;;;15.38;8.82;;;;;;;4.30;100.00;95800.75;1031133;28;20034;-70
2023/04/26 01:21:51;;;;;;;13.40;7.97;;;;;;;4.31;100.00;95796.34;1025991;28;20404;-71
2023/04/26 01:22:22;;;;;;;16.73;9.25;;;;;;;4.34;100.00;95809.66;1030050;28;20257;-70
2023/04/26 01:22:52;;;;;;;15.57;8.80;;;;;;;4.31;100.00;95799.72;1025985;28;20823;-73
2023/04/26 01:23:23;;;;;;;16.33;9.00;;;;;;;4.32;100.00;95806.50;1026047;28;20030;-72
2023/04/26 01:23:53;;;;;;;16.67;8.60;;;;;;;4.24;100.00;95794.63;1026256;28;20031;-70
2023/04/26 01:24:23;;;;;;;19.08;9.57;;;;;;;4.28;100.00;95802.75;1029953;28;20038;-70
2023/04/26 01:24:54;;;;;;;18.75;9.25;;;;;;;4.30;100.00;95802.56;1030060;28;20471;-69
2023/04/26 01:25:24;;;;;;;18.00;8.90;;;;;;;4.27;100.00;95803.00;1025860;28;20077;-71
2023/04/26 01:25:55;;;;;;;14.73;7.55;;;;;;;4.25;100.00;95809.19;1022013;29;20031;-72
2023/04/26 01:26:26;;;;;;;16.48;8.27;;;;;;;4.20;100.00;95800.50;1021885;29;20031;-70
2023/04/26 01:26:56;;;;;;;19.92;8.55;;;;;;;4.24;100.00;95799.03;1018118;29;20071;-73
2023/04/26 01:27:27;;;;;;;14.98;8.35;;;;;;;4.26;100.00;95807.41;1018063;29;20055;-73
2023/04/26 01:27:57;;;;;;;16.80;8.48;;;;;;;4.26;100.00;95802.19;1021447;29;20057;-72
2023/04/26 01:28:27;;;;;;;16.83;8.40;;;;;;;4.25;100.00;95800.59;1021903;28;20027;-70
2023/04/26 01:28:58;;;;;;;15.27;7.95;;;;;;;4.26;100.00;95802.19;1025560;28;20030;-73
2023/04/26 01:29:28;;;;;;;17.13;7.90;;;;;;;4.25;100.00;95798.78;1030010;28;20428;-71
2023/04/26 01:29:59;;;;;;;18.23;9.10;;;;;;;4.28;100.00;95800.16;1025953;28;20030;-74
2023/04/26 01:30:29;;;;;;;17.88;8.70;;;;;;;4.28;100.00;95805.34;1025742;28;20038;-72
2023/04/26 01:31:00;;;;;;;17.33;8.13;;;;;;;4.28;100.00;95804.56;1030319;28;20511;-71
2023/04/26 01:31:30;;;;;;;13.60;8.02;;;;;;;4.28;100.00;95805.34;1029832;28;20038;-73
2023/04/26 01:32:01;;;;;;;21.38;9.07;;;;;;;4.25;100.00;95795.41;1034124;28;20096;-71
2023/04/26 01:32:31;;;;;;;13.48;7.45;;;;;;;4.21;100.00;95789.88;1029851;28;20046;-73
2023/04/26 01:33:02;;;;;;;15.23;8.07;;;;;;;4.24;100.00;95804.22;1022175;28;20043;-71
2023/04/26 01:33:32;;;;;;;16.70;8.20;;;;;;;4.25;100.00;95801.38;1025799;28;20119;-72
2023/04/26 01:34:02;;;;;;;15.80;7.95;;;;;;;4.25;100.00;95798.78;1026338;28;20073;-72
2023/04/26 01:34:33;;;;;;;20.33;10.05;;;;;;;4.24;100.00;95799.03;1029887;28;20030;-74
2023/04/26 01:35:04;;;;;;;16.17;8.50;;;;;;;4.23;100.00;95803.44;1025938;28;20085;-72
2023/04/26 01:35:35;;;;;;;13.27;7.25;;;;;;;4.25;100.00;95798.00;1026242;28;20107;-71
2023/04/26 01:36:09;;;;;;;15.10;8.65;;;;;;;4.20;100.00;95800.50;1030190;28;20340;-73
2023/04/26 01:36:40;;;;;;;16.33;8.02;;;;;;;4.18;100.00;95794.72;1026489;28;20117;-69
2023/04/26 01:37:10;;;;;;;12.30;6.65;;;;;;;4.17;100.00;95790.53;1026744;28;20278;-72
2023/04/26 01:37:40;;;;;;;12.88;7.22;;;;;;;4.23;100.00;95800.03;1021969;29;20039;-72
2023/04/26 01:38:13;;;;;;;14.18;7.57;;;;;;;4.23;100.00;95800.84;1026226;28;20042;-72
2023/04/26 01:38:43;;;;;;;16.88;7.78;;;;;;;4.22;100.00;95798.44;1025453;28;20035;-73
2023/04/26 01:39:14;;;;;;;15.70;8.23;;;;;;;4.16;100.00;95791.56;1026500;28;21112;-70
2023/04/26 01:39:45;;;;;;;15.60;7.43;;;;;;;4.20;100.00;95805.69;1026814;28;20058;-72
2023/04/26 01:40:15;;;;;;;16.55;8.75;;;;;;;4.22;100.00;95808.81;1029877;28;20045;-73
2023/04/26 01:40:46;;;;;;;15.82;7.45;;;;;;;4.22;100.00;95806.22;1026082;28;20018;-71
2023/04/26 01:41:16;;;;;;;17.02;7.72;;;;;;;4.23;100.00;95807.84;1026272;28;20019;-72
2023/04/26 01:41:47;;;;;;;12.90;7.38;;;;;;;4.23;100.00;95807.84;1025904;28;20039;-72
2023/04/26 01:42:17;;;;;;;13.80;7.18;;;;;;;4.24;100.00;95810.19;1027520;28;20026;-71
2023/04/26 01:42:48;;;;;;;13.65;7.45;;;;;;;4.22;100.00;95812.22;1029914;28;20046;-72
2023/04/26 01:43:19;;;;;;;14.15;7.47;;;;;;;4.18;100.00;95805.09;1034101;28;20037;-73
2023/04/26 01:43:50;;;;;;;16.25;7.78;;;;;;;4.18;100.00;95807.69;1035067;28;20040;-72
2023/04/26 01:44:20;;;;;;;16.55;7.78;;;;;;;4.19;100.00;95806.66;1031574;28;20277;-71
2023/04/26 01:44:51;;;;;;;15.15;7.47;;;;;;;4.21;100.00;95810.63;1023020;29;20032;-72
2023/04/26 01:45:21;;;;;;;13.45;6.80;;;;;;;4.19;100.00;95807.50;1025447;28;20031;-72
2023/04/26 01:45:52;;;;;;;13.50;6.80;;;;;;;4.17;100.00;95809.50;1023559;28;20159;-72
2023/04/26 01:46:22;;;;;;;11.23;7.03;;;;;;;4.21;100.00;95807.25;1027462;28;20070;-72
2023/04/26 01:46:53;;;;;;;13.18;6.75;;;;;;;4.19;100.00;95806.66;1021975;29;20099;-71
2023/04/26 01:47:25;;;;;;;15.18;7.20;;;;;;;4.17;100.00;95813.91;1026057;28;20034;-71
2023/04/26 01:47:55;;;;;;;13.23;7.43;;;;;;;4.16;100.00;95813.13;1026552;28;20034;-71
2023/04/26 01:48:26;;;;;;;13.32;6.43;;;;;;;4.18;100.00;95812.88;1034256;28;20273;-72
2023/04/26 01:48:56;;;;;;;12.43;6.97;;;;;;;4.19;100.00;95811.88;1033044;28;20046;-71
2023/04/26 01:49:26;;;;;;;13.18;7.07;;;;;;;4.12;100.00;95795.59;1034026;28;20034;-71
2023/04/26 01:49:57;;;;;;;12.95;6.88;;;;;;;4.16;100.00;95800.13;1030101;28;20534;-72
2023/04/26 01:50:27;;;;;;;13.60;6.82;;;;;;;4.12;100.00;95804.16;1025801;28;20038;-71
2023/04/26 01:50:58;;;;;;;14.82;7.32;;;;;;;4.19;100.00;95810.09;1025999;28;20045;-72
2023/04/26 01:51:28;;;;;;;13.63;7.15;;;;;;;4.17;100.00;95806.13;1026100;28;20030;-72
2023/04/26 01:52:00;;;;;;;12.85;6.93;;;;;;;4.16;100.00;95801.94;1030024;28;20098;-71
2023/04/26 01:52:30;;;;;;;11.65;6.82;;;;;;;4.14;100.00;95804.75;1026049;28;20038;-72
2023/04/26 01:53:00;;;;;;;11.93;7.13;;;;;;;4.11;100.00;95799.19;1021998;29;20281;-71
2023/04/26 01:53:31;;;;;;;14.73;7.75;;;;;;;4.15;100.00;95806.31;1025877;28;20058;-72
2023/04/26 01:54:01;;;;;;;14.52;6.68;;;;;;;4.17;100.00;95803.53;1025881;28;20027;-72
2023/04/26 01:54:32;;;;;;;11.63;7.07;;;;;;;4.15;100.00;95806.31;1030613;28;20387;-73
2023/04/26 01:55:02;;;;;;;12.55;7.15;;;;;;;4.11;100.00;95791.41;1034972;28;20026;-72
2023/04/26 01:55:33;;;;;;;14.38;6.47;;;;;;;4.15;100.00;95802.94;1038772;28;20036;-72
2023/04/26 01:56:04;;;;;;;12.48;7.13;;;;;;;4.17;100.00;95804.31;1036455;28;20036;-71
2023/04/26 01:56:35;;;;;;;11.35;7.25;;;;;;;4.17;100.00;95801.72;1030459;28;20579;-73
2023/04/26 01:57:05;;;;;;;12.00;7.30;;;;;;;4.10;100.00;95797.63;1021099;29;20286;-74
2023/04/26 01:57:36;;;;;;;14.65;7.75;;;;;;;4.15;100.00;95800.34;1022657;28;20035;-73
2023/04/26 01:58:06;;;;;;;15.15;7.18;;;;;;;4.10;100.00;95803.59;1026994;28;20658;-74
2023/04/26 01:58:37;;;;;;;11.27;6.40;;;;;;;4.12;100.00;95795.59;1022237;28;20087;-72
2023/04/26 01:59:07;;;;;;;14.35;7.85;;;;;;;4.15;100.00;95810.72;1026422;28;20075;-72
2023/04/26 01:59:38;;;;;;;12.85;6.80;;;;;;;4.13;100.00;95803.16;1025946;28;20029;-71
2023/04/26 02:00:09;;;;;;;13.13;7.20;;;;;;;4.11;100.00;95804.41;1026655;28;20107;-73
2023/04/26 02:00:39;;;;;;;11.82;6.85;;;;;;;4.12;100.00;95801.56;1026587;28;20149;-72
2023/04/26 02:01:10;;;;;;;12.02;7.32;;;;;;;4.12;100.00;95804.16;1026530;28;20273;-72
2023/04/26 02:01:42;;;;;;;10.27;6.80;;;;;;;4.11;100.00;95804.41;1022684;28;20039;-73
2023/04/26 02:02:12;;;;;;;13.57;6.95;;;;;;;4.11;100.00;95804.41;1023148;28;20039;-73
2023/04/26 02:02:43;;;;;;;10.38;7.07;;;;;;;4.08;100.00;95804.81;1026795;28;20953;-72
2023/04/26 02:03:14;;;;;;;13.57;7.10;;;;;;;4.05;100.00;95800.88;1026647;28;20088;-72
2023/04/26 02:03:44;;;;;;;13.05;6.90;;;;;;;4.06;100.00;95804.25;1026777;28;20038;-74
2023/04/26 02:04:15;;;;;;;12.48;6.88;;;;;;;4.08;100.00;95799.63;1026715;28;20056;-71
2023/04/26 02:04:45;;;;;;;14.52;7.25;;;;;;;4.03;100.00;95791.72;1034153;28;20033;-73
2023/04/26 02:05:16;;;;;;;16.88;7.40;;;;;;;3.99;100.00;95792.16;1034699;28;20030;-71
2023/04/26 02:05:46;;;;;;;12.40;6.55;;;;;;;4.04;100.00;95804.47;1026716;28;20026;-73
2023/04/26 02:06:17;;;;;;;13.90;7.18;;;;;;;4.06;100.00;95801.66;1030609;28;20109;-71
2023/04/26 02:06:47;;;;;;;18.05;7.82;;;;;;;4.06;100.00;95802.47;1026838;28;20034;-72
2023/04/26 02:07:18;;;;;;;12.23;6.95;;;;;;;4.07;100.00;95803.25;1026926;28;20027;-70
2023/04/26 02:07:49;;;;;;;13.30;6.68;;;;;;;4.05;100.00;95806.06;1026405;28;20764;-71
2023/04/26 02:08:19;;;;;;;12.57;6.32;;;;;;;4.04;100.00;95803.69;1022947;28;20034;-71
2023/04/26 02:08:50;;;;;;;13.05;6.97;;;;;;;3.97;100.00;95804.56;1026063;28;20031;-72
2023/04/26 02:09:20;;;;;;;16.65;7.50;;;;;;;4.03;100.00;95815.09;1026787;28;20665;-74
2023/04/26 02:09:50;;;;;;;13.90;6.57;;;;;;;4.03;100.00;95812.50;1026413;28;20111;-70
2023/04/26 02:10:21;;;;;;;16.13;7.50;;;;;;;4.02;100.00;95819.47;1030795;28;20030;-71
2023/04/26 02:10:51;;;;;;;13.20;7.68;;;;;;;4.03;100.00;95807.31;1030762;28;20019;-71
2023/04/26 02:11:23;;;;;;;11.48;6.88;;;;;;;4.02;100.00;95811.69;1030544;28;20033;-72
2023/04/26 02:11:53;;;;;;;14.20;7.80;;;;;;;4.01;100.00;95816.09;1022804;28;20024;-72
2023/04/26 02:12:24;;;;;;;15.00;7.10;;;;;;;3.98;100.00;95810.53;1026708;28;20262;-72
2023/04/26 02:12:54;;;;;;;14.18;7.93;;;;;;;3.97;100.00;95814.94;1022570;28;20036;-74
2023/04/26 02:13:25;;;;;;;14.38;7.75;;;;;;;3.99;100.00;95815.53;1026610;28;20056;-71
2023/04/26 02:13:56;;;;;;;14.60;7.50;;;;;;;4.00;100.00;95814.50;1030471;28;20498;-71
2023/04/26 02:14:26;;;;;;;15.40;7.50;;;;;;;3.92;100.00;95795.84;1022857;28;20488;-72
2023/04/26 02:14:57;;;;;;;15.15;6.93;;;;;;;4.04;100.00;95817.47;1026495;28;20082;-70
2023/04/26 02:15:27;;;;;;;18.20;6.82;;;;;;;4.05;100.00;95811.25;1026705;28;20022;-71
2023/04/26 02:15:58;;;;;;;13.43;7.07;;;;;;;4.07;100.00;95808.44;1022737;28;20592;-70
2023/04/26 02:16:28;;;;;;;12.95;7.60;;;;;;;4.05;100.00;95807.84;1029047;28;20034;-72
2023/04/26 02:16:59;;;;;;;13.55;7.28;;;;;;;4.07;100.00;95805.84;1034789;28;20025;-72
2023/04/26 02:17:29;;;;;;;10.65;6.47;;;;;;;4.08;100.00;95807.44;1038934;28;20572;-72
2023/04/26 02:18:00;;;;;;;12.48;7.32;;;;;;;4.09;100.00;95809.00;1038619;28;20766;-72
2023/04/26 02:18:30;;;;;;;16.80;7.65;;;;;;;4.08;100.00;95805.63;1038705;28;20026;-72
2023/04/26 02:19:02;;;;;;;13.63;6.93;;;;;;;4.06;100.00;95812.84;1038056;28;20058;-73
2023/04/26 02:19:33;;;;;;;14.15;7.00;;;;;;;4.06;100.00;95807.66;1038972;28;20033;-72
2023/04/26 02:20:03;;;;;;;11.98;6.93;;;;;;;4.05;100.00;95800.06;1042638;28;20259;-71
2023/04/26 02:20:35;;;;;;;13.63;7.38;;;;;;;4.06;100.00;95807.66;1038549;28;20037;-71
2023/04/26 02:21:10;;;;;;;12.88;6.85;;;;;;;4.06;100.00;95810.25;1039655;28;20055;-71
2023/04/26 02:21:53;;;;;;;15.13;7.22;;;;;;;4.08;100.00;95815.22;1030378;28;20272;-71
2023/04/26 02:22:24;;;;;;;10.95;6.60;;;;;;;4.07;100.00;95808.44;1027193;28;20369;-72
2023/04/26 02:22:55;;;;;;;11.65;7.15;;;;;;;4.03;100.00;95807.31;1027667;28;20266;-71